sensor_id;sensor_type;location;lat;lon;timestamp;temperature;humidity
13245;DHT22;6689;53.400;12.486;2023-02-01T00:01:41;4.40;99.90
13245;DHT22;6689;53.400;12.486;2023-02-01T00:04:09;4.40;99.90
13245;DHT22;6689;53.400;12.486;2023-02-01T00:06:38;4.30;99.90
13245;DHT22;6689;53.400;12.486;2023-02-01T00:09:05;4.40;91.90
13245;DHT22;6689;53.400;12.486;2023-02-01T00:11:32;4.40;97.40
13245;DHT22;6689;53.400;12.486;2023-02-01T00:14:00;4.40;86.90
13245;DHT22;6689;53.400;12.486;2023-02-01T00:16:29;4.40;99.90
13245;DHT22;6689;53.400;12.486;2023-02-01T00:19:00;4.40;99.90
13245;DHT22;6689;53.400;12.486;2023-02-01T00:21:27;4.40;99.90
13245;DHT22;6689;53.400;12.486;2023-02-01T00:23:56;4.40;91.10
13245;DHT22;6689;53.400;12.486;2023-02-01T00:26:32;4.50;90.80
13245;DHT22;6689;53.400;12.486;2023-02-01T00:29:00;4.30;78.60
13245;DHT22;6689;53.400;12.486;2023-02-01T00:31:27;4.30;99.90
13245;DHT22;6689;53.400;12.486;2023-02-01T00:33:54;4.30;99.90
13245;DHT22;6689;53.400;12.486;2023-02-01T00:36:22;4.40;83.30
13245;DHT22;6689;53.400;12.486;2023-02-01T00:38:50;4.50;99.90
13245;DHT22;6689;53.400;12.486;2023-02-01T00:41:21;4.50;74.30
13245;DHT22;6689;53.400;12.486;2023-02-01T00:43:50;4.50;41.00
13245;DHT22;6689;53.400;12.486;2023-02-01T00:46:18;4.60;38.30
13245;DHT22;6689;53.400;12.486;2023-02-01T00:48:47;4.50;26.70
13245;DHT22;6689;53.400;12.486;2023-02-01T00:51:16;4.60;21.90
13245;DHT22;6689;53.400;12.486;2023-02-01T00:53:46;4.50;6.70
13245;DHT22;6689;53.400;12.486;2023-02-01T00:56:13;4.60;1.00
13245;DHT22;6689;53.400;12.486;2023-02-01T00:58:42;4.60;1.00
13245;DHT22;6689;53.400;12.486;2023-02-01T01:01:14;4.50;1.00
13245;DHT22;6689;53.400;12.486;2023-02-01T01:03:43;4.40;1.00
13245;DHT22;6689;53.400;12.486;2023-02-01T01:06:12;4.50;1.00
13245;DHT22;6689;53.400;12.486;2023-02-01T01:08:44;4.50;1.00
13245;DHT22;6689;53.400;12.486;2023-02-01T01:11:14;4.60;1.00
13245;DHT22;6689;53.400;12.486;2023-02-01T01:13:45;4.60;1.00
13245;DHT22;6689;53.400;12.486;2023-02-01T01:16:14;4.60;1.00
13245;DHT22;6689;53.400;12.486;2023-02-01T01:18:42;4.60;1.00
13245;DHT22;6689;53.400;12.486;2023-02-01T01:21:12;4.60;1.00
13245;DHT22;6689;53.400;12.486;2023-02-01T01:23:39;4.50;1.00
13245;DHT22;6689;53.400;12.486;2023-02-01T01:26:08;4.50;1.00
13245;DHT22;6689;53.400;12.486;2023-02-01T01:28:36;4.60;1.00
13245;DHT22;6689;53.400;12.486;2023-02-01T01:31:08;4.50;1.00
13245;DHT22;6689;53.400;12.486;2023-02-01T01:33:35;4.60;1.00
13245;DHT22;6689;53.400;12.486;2023-02-01T01:36:05;4.60;1.00
13245;DHT22;6689;53.400;12.486;2023-02-01T01:38:32;4.70;1.00
13245;DHT22;6689;53.400;12.486;2023-02-01T01:40:59;4.50;2.10
13245;DHT22;6689;53.400;12.486;2023-02-01T01:43:52;4.60;1.00
13245;DHT22;6689;53.400;12.486;2023-02-01T01:46:22;4.60;1.00
13245;DHT22;6689;53.400;12.486;2023-02-01T01:48:53;4.60;4.80
13245;DHT22;6689;53.400;12.486;2023-02-01T01:51:25;4.60;3.40
13245;DHT22;6689;53.400;12.486;2023-02-01T01:53:59;4.60;17.20
13245;DHT22;6689;53.400;12.486;2023-02-01T01:56:29;4.60;2.60
13245;DHT22;6689;53.400;12.486;2023-02-01T01:58:58;4.60;2.10
13245;DHT22;6689;53.400;12.486;2023-02-01T02:01:28;4.60;12.30
13245;DHT22;6689;53.400;12.486;2023-02-01T02:03:56;4.60;14.60
13245;DHT22;6689;53.400;12.486;2023-02-01T02:06:39;4.60;1.00
13245;DHT22;6689;53.400;12.486;2023-02-01T02:09:07;4.50;1.00
13245;DHT22;6689;53.400;12.486;2023-02-01T02:11:35;4.60;8.00
13245;DHT22;6689;53.400;12.486;2023-02-01T02:14:03;4.60;4.20
13245;DHT22;6689;53.400;12.486;2023-02-01T02:16:54;4.50;5.90
13245;DHT22;6689;53.400;12.486;2023-02-01T02:23:10;4.60;1.00
13245;DHT22;6689;53.400;12.486;2023-02-01T02:26:27;4.50;1.00
13245;DHT22;6689;53.400;12.486;2023-02-01T02:32:30;4.50;1.00
13245;DHT22;6689;53.400;12.486;2023-02-01T02:35:08;4.60;1.00
13245;DHT22;6689;53.400;12.486;2023-02-01T02:37:42;4.60;1.00
13245;DHT22;6689;53.400;12.486;2023-02-01T02:40:16;4.60;1.00
13245;DHT22;6689;53.400;12.486;2023-02-01T02:42:52;4.60;1.00
13245;DHT22;6689;53.400;12.486;2023-02-01T02:45:42;4.50;3.90
13245;DHT22;6689;53.400;12.486;2023-02-01T02:51:58;4.60;1.00
13245;DHT22;6689;53.400;12.486;2023-02-01T02:54:47;4.60;1.00
13245;DHT22;6689;53.400;12.486;2023-02-01T02:57:20;4.70;1.00
13245;DHT22;6689;53.400;12.486;2023-02-01T03:00:09;4.70;1.00
13245;DHT22;6689;53.400;12.486;2023-02-01T03:02:55;4.70;1.00
13245;DHT22;6689;53.400;12.486;2023-02-01T03:05:43;4.70;1.00
13245;DHT22;6689;53.400;12.486;2023-02-01T03:08:14;4.70;1.00
13245;DHT22;6689;53.400;12.486;2023-02-01T03:10:49;4.50;1.00
13245;DHT22;6689;53.400;12.486;2023-02-01T03:13:24;4.60;1.00
13245;DHT22;6689;53.400;12.486;2023-02-01T03:15:56;4.60;1.00
13245;DHT22;6689;53.400;12.486;2023-02-01T03:18:36;4.60;7.70
13245;DHT22;6689;53.400;12.486;2023-02-01T03:21:09;4.70;15.00
13245;DHT22;6689;53.400;12.486;2023-02-01T03:23:38;4.70;18.10
13245;DHT22;6689;53.400;12.486;2023-02-01T03:26:09;4.60;30.00
13245;DHT22;6689;53.400;12.486;2023-02-01T03:28:43;4.80;21.10
13245;DHT22;6689;53.400;12.486;2023-02-01T03:31:11;4.70;26.80
13245;DHT22;6689;53.400;12.486;2023-02-01T03:33:40;4.70;26.90
13245;DHT22;6689;53.400;12.486;2023-02-01T03:36:18;4.70;41.30
13245;DHT22;6689;53.400;12.486;2023-02-01T03:38:52;4.70;28.50
13245;DHT22;6689;53.400;12.486;2023-02-01T03:41:27;4.80;32.90
13245;DHT22;6689;53.400;12.486;2023-02-01T03:43:58;4.80;38.00
13245;DHT22;6689;53.400;12.486;2023-02-01T03:46:32;4.90;24.90
13245;DHT22;6689;53.400;12.486;2023-02-01T03:49:02;4.90;15.70
13245;DHT22;6689;53.400;12.486;2023-02-01T03:51:33;4.90;8.90
13245;DHT22;6689;53.400;12.486;2023-02-01T03:54:04;4.80;3.10
13245;DHT22;6689;53.400;12.486;2023-02-01T03:56:35;5.00;10.30
13245;DHT22;6689;53.400;12.486;2023-02-01T03:59:03;5.00;1.00
13245;DHT22;6689;53.400;12.486;2023-02-01T04:01:31;5.00;1.00
13245;DHT22;6689;53.400;12.486;2023-02-01T04:03:59;5.00;1.00
13245;DHT22;6689;53.400;12.486;2023-02-01T04:06:26;4.90;1.00
13245;DHT22;6689;53.400;12.486;2023-02-01T04:08:54;5.00;1.00
13245;DHT22;6689;53.400;12.486;2023-02-01T04:11:22;5.00;1.00
13245;DHT22;6689;53.400;12.486;2023-02-01T04:13:50;5.00;1.00
13245;DHT22;6689;53.400;12.486;2023-02-01T04:16:17;5.00;1.00
13245;DHT22;6689;53.400;12.486;2023-02-01T04:18:44;5.00;1.00
13245;DHT22;6689;53.400;12.486;2023-02-01T04:21:12;5.00;1.00
13245;DHT22;6689;53.400;12.486;2023-02-01T04:23:39;5.00;1.00
13245;DHT22;6689;53.400;12.486;2023-02-01T04:26:06;5.00;1.00
13245;DHT22;6689;53.400;12.486;2023-02-01T04:28:35;5.00;1.00
13245;DHT22;6689;53.400;12.486;2023-02-01T04:31:02;5.00;1.00
13245;DHT22;6689;53.400;12.486;2023-02-01T04:33:30;5.00;1.00
13245;DHT22;6689;53.400;12.486;2023-02-01T04:35:57;5.10;1.00
13245;DHT22;6689;53.400;12.486;2023-02-01T04:38:24;5.10;1.00
13245;DHT22;6689;53.400;12.486;2023-02-01T04:40:52;5.20;1.00
13245;DHT22;6689;53.400;12.486;2023-02-01T04:43:19;5.20;1.00
13245;DHT22;6689;53.400;12.486;2023-02-01T04:45:49;5.10;1.00
13245;DHT22;6689;53.400;12.486;2023-02-01T04:48:17;5.20;1.00
13245;DHT22;6689;53.400;12.486;2023-02-01T04:50:46;5.10;1.00
13245;DHT22;6689;53.400;12.486;2023-02-01T04:53:14;5.20;1.00
13245;DHT22;6689;53.400;12.486;2023-02-01T04:55:44;5.20;1.00
13245;DHT22;6689;53.400;12.486;2023-02-01T04:58:11;5.20;1.00
13245;DHT22;6689;53.400;12.486;2023-02-01T05:00:38;5.10;1.00
13245;DHT22;6689;53.400;12.486;2023-02-01T05:03:08;5.20;1.00
13245;DHT22;6689;53.400;12.486;2023-02-01T05:05:35;5.20;1.00
13245;DHT22;6689;53.400;12.486;2023-02-01T05:08:03;5.20;1.00
13245;DHT22;6689;53.400;12.486;2023-02-01T05:10:30;5.20;2.10
13245;DHT22;6689;53.400;12.486;2023-02-01T05:12:57;5.20;1.00
13245;DHT22;6689;53.400;12.486;2023-02-01T05:15:42;5.20;11.40
13245;DHT22;6689;53.400;12.486;2023-02-01T05:18:13;5.30;34.30
13245;DHT22;6689;53.400;12.486;2023-02-01T05:20:41;5.30;53.40
13245;DHT22;6689;53.400;12.486;2023-02-01T05:23:08;5.10;99.90
13245;DHT22;6689;53.400;12.486;2023-02-01T05:25:36;5.20;99.90
13245;DHT22;6689;53.400;12.486;2023-02-01T05:28:03;5.20;99.90
13245;DHT22;6689;53.400;12.486;2023-02-01T05:30:32;5.20;99.90
13245;DHT22;6689;53.400;12.486;2023-02-01T05:33:01;5.20;99.90
13245;DHT22;6689;53.400;12.486;2023-02-01T05:35:30;5.10;99.90
13245;DHT22;6689;53.400;12.486;2023-02-01T05:37:58;5.10;99.90
13245;DHT22;6689;53.400;12.486;2023-02-01T05:40:26;5.10;99.90
13245;DHT22;6689;53.400;12.486;2023-02-01T05:42:53;4.90;73.40
13245;DHT22;6689;53.400;12.486;2023-02-01T05:45:21;5.00;93.50
13245;DHT22;6689;53.400;12.486;2023-02-01T05:47:49;4.90;99.90
13245;DHT22;6689;53.400;12.486;2023-02-01T05:50:17;4.90;99.90
13245;DHT22;6689;53.400;12.486;2023-02-01T05:52:45;4.90;99.90
13245;DHT22;6689;53.400;12.486;2023-02-01T05:55:16;4.80;99.90
13245;DHT22;6689;53.400;12.486;2023-02-01T05:57:44;4.80;99.90
13245;DHT22;6689;53.400;12.486;2023-02-01T06:00:12;4.80;99.90
13245;DHT22;6689;53.400;12.486;2023-02-01T06:02:39;4.80;99.90
13245;DHT22;6689;53.400;12.486;2023-02-01T06:05:08;4.70;99.90
13245;DHT22;6689;53.400;12.486;2023-02-01T06:07:35;4.70;99.90
13245;DHT22;6689;53.400;12.486;2023-02-01T06:10:05;4.70;99.90
13245;DHT22;6689;53.400;12.486;2023-02-01T06:12:32;4.60;99.90
13245;DHT22;6689;53.400;12.486;2023-02-01T06:15:00;4.60;99.90
13245;DHT22;6689;53.400;12.486;2023-02-01T06:17:27;4.50;99.90
13245;DHT22;6689;53.400;12.486;2023-02-01T06:19:55;4.50;99.90
13245;DHT22;6689;53.400;12.486;2023-02-01T06:22:22;4.30;99.90
13245;DHT22;6689;53.400;12.486;2023-02-01T06:24:50;4.50;99.90
13245;DHT22;6689;53.400;12.486;2023-02-01T06:27:18;4.50;99.90
13245;DHT22;6689;53.400;12.486;2023-02-01T06:29:45;4.40;99.90
13245;DHT22;6689;53.400;12.486;2023-02-01T06:32:13;4.60;99.90
13245;DHT22;6689;53.400;12.486;2023-02-01T06:34:40;4.50;99.90
13245;DHT22;6689;53.400;12.486;2023-02-01T06:37:07;4.40;99.90
13245;DHT22;6689;53.400;12.486;2023-02-01T06:39:36;4.30;99.90
13245;DHT22;6689;53.400;12.486;2023-02-01T06:42:04;4.40;99.90
13245;DHT22;6689;53.400;12.486;2023-02-01T06:44:33;4.40;99.90
13245;DHT22;6689;53.400;12.486;2023-02-01T06:47:05;4.50;99.90
13245;DHT22;6689;53.400;12.486;2023-02-01T06:49:32;4.50;99.90
13245;DHT22;6689;53.400;12.486;2023-02-01T06:51:59;4.40;99.90
13245;DHT22;6689;53.400;12.486;2023-02-01T06:54:27;4.40;99.90
13245;DHT22;6689;53.400;12.486;2023-02-01T06:56:55;4.40;99.90
13245;DHT22;6689;53.400;12.486;2023-02-01T06:59:22;4.30;99.90
13245;DHT22;6689;53.400;12.486;2023-02-01T07:01:51;4.30;99.90
13245;DHT22;6689;53.400;12.486;2023-02-01T07:04:19;4.40;99.90
13245;DHT22;6689;53.400;12.486;2023-02-01T07:06:46;4.30;99.90
13245;DHT22;6689;53.400;12.486;2023-02-01T07:09:13;4.10;99.90
13245;DHT22;6689;53.400;12.486;2023-02-01T07:11:41;4.30;99.90
13245;DHT22;6689;53.400;12.486;2023-02-01T07:14:12;4.40;99.90
13245;DHT22;6689;53.400;12.486;2023-02-01T07:16:39;4.20;99.90
13245;DHT22;6689;53.400;12.486;2023-02-01T07:19:08;4.30;99.90
13245;DHT22;6689;53.400;12.486;2023-02-01T07:21:35;4.30;99.90
13245;DHT22;6689;53.400;12.486;2023-02-01T07:24:03;4.20;99.90
13245;DHT22;6689;53.400;12.486;2023-02-01T07:26:31;4.30;99.90
13245;DHT22;6689;53.400;12.486;2023-02-01T07:28:58;4.30;99.90
13245;DHT22;6689;53.400;12.486;2023-02-01T07:31:25;4.30;99.90
13245;DHT22;6689;53.400;12.486;2023-02-01T07:33:55;4.50;99.90
13245;DHT22;6689;53.400;12.486;2023-02-01T07:36:25;4.20;99.90
13245;DHT22;6689;53.400;12.486;2023-02-01T07:38:52;4.20;99.90
13245;DHT22;6689;53.400;12.486;2023-02-01T07:41:20;4.20;99.90
13245;DHT22;6689;53.400;12.486;2023-02-01T07:43:48;4.30;99.90
13245;DHT22;6689;53.400;12.486;2023-02-01T07:46:16;3.70;99.90
13245;DHT22;6689;53.400;12.486;2023-02-01T07:48:44;4.00;99.90
13245;DHT22;6689;53.400;12.486;2023-02-01T07:51:12;4.10;99.90
13245;DHT22;6689;53.400;12.486;2023-02-01T07:53:42;4.00;99.90
13245;DHT22;6689;53.400;12.486;2023-02-01T07:56:11;4.20;99.90
13245;DHT22;6689;53.400;12.486;2023-02-01T07:58:39;4.20;99.90
13245;DHT22;6689;53.400;12.486;2023-02-01T08:01:14;4.30;99.90
13245;DHT22;6689;53.400;12.486;2023-02-01T08:03:47;4.20;99.90
13245;DHT22;6689;53.400;12.486;2023-02-01T08:06:15;4.30;99.90
13245;DHT22;6689;53.400;12.486;2023-02-01T08:08:44;4.30;99.90
13245;DHT22;6689;53.400;12.486;2023-02-01T08:11:13;4.20;99.90
13245;DHT22;6689;53.400;12.486;2023-02-01T08:13:41;4.20;99.90
13245;DHT22;6689;53.400;12.486;2023-02-01T08:16:09;4.00;99.90
13245;DHT22;6689;53.400;12.486;2023-02-01T08:18:38;4.20;99.90
13245;DHT22;6689;53.400;12.486;2023-02-01T08:21:08;4.30;99.90
13245;DHT22;6689;53.400;12.486;2023-02-01T08:23:36;4.30;99.90
13245;DHT22;6689;53.400;12.486;2023-02-01T08:26:11;4.20;99.90
13245;DHT22;6689;53.400;12.486;2023-02-01T08:28:39;4.20;1.00
13245;DHT22;6689;53.400;12.486;2023-02-01T08:31:12;4.20;99.90
13245;DHT22;6689;53.400;12.486;2023-02-01T08:33:41;4.20;99.90
13245;DHT22;6689;53.400;12.486;2023-02-01T08:36:10;3.90;99.90
13245;DHT22;6689;53.400;12.486;2023-02-01T08:38:39;4.10;99.90
13245;DHT22;6689;53.400;12.486;2023-02-01T08:41:07;4.20;99.90
13245;DHT22;6689;53.400;12.486;2023-02-01T08:43:36;4.30;99.90
13245;DHT22;6689;53.400;12.486;2023-02-01T08:46:04;4.20;99.90
13245;DHT22;6689;53.400;12.486;2023-02-01T08:48:32;4.20;99.90
13245;DHT22;6689;53.400;12.486;2023-02-01T08:51:01;4.10;99.90
13245;DHT22;6689;53.400;12.486;2023-02-01T08:53:30;4.10;99.90
13245;DHT22;6689;53.400;12.486;2023-02-01T08:55:57;4.30;99.90
13245;DHT22;6689;53.400;12.486;2023-02-01T08:58:27;4.10;99.90
13245;DHT22;6689;53.400;12.486;2023-02-01T09:00:56;4.30;99.90
13245;DHT22;6689;53.400;12.486;2023-02-01T09:03:24;4.50;99.90
13245;DHT22;6689;53.400;12.486;2023-02-01T09:06:00;4.40;99.90
13245;DHT22;6689;53.400;12.486;2023-02-01T09:08:27;4.60;99.90
13245;DHT22;6689;53.400;12.486;2023-02-01T09:10:58;4.70;99.90
13245;DHT22;6689;53.400;12.486;2023-02-01T09:13:26;4.60;99.90
13245;DHT22;6689;53.400;12.486;2023-02-01T09:15:55;4.40;99.90
13245;DHT22;6689;53.400;12.486;2023-02-01T09:18:23;4.50;99.90
13245;DHT22;6689;53.400;12.486;2023-02-01T09:20:50;4.50;99.90
13245;DHT22;6689;53.400;12.486;2023-02-01T09:23:18;4.60;99.90
13245;DHT22;6689;53.400;12.486;2023-02-01T09:25:46;4.50;99.90
13245;DHT22;6689;53.400;12.486;2023-02-01T09:28:15;4.60;99.90
13245;DHT22;6689;53.400;12.486;2023-02-01T09:30:43;4.70;99.90
13245;DHT22;6689;53.400;12.486;2023-02-01T09:33:11;5.00;99.90
13245;DHT22;6689;53.400;12.486;2023-02-01T09:35:39;4.90;99.90
13245;DHT22;6689;53.400;12.486;2023-02-01T09:38:06;5.20;99.90
13245;DHT22;6689;53.400;12.486;2023-02-01T09:40:34;5.00;99.90
13245;DHT22;6689;53.400;12.486;2023-02-01T09:43:18;4.90;99.90
13245;DHT22;6689;53.400;12.486;2023-02-01T09:45:56;5.20;99.90
13245;DHT22;6689;53.400;12.486;2023-02-01T09:48:30;5.20;99.90
13245;DHT22;6689;53.400;12.486;2023-02-01T09:51:00;5.20;99.90
13245;DHT22;6689;53.400;12.486;2023-02-01T09:53:31;5.30;99.90
13245;DHT22;6689;53.400;12.486;2023-02-01T09:56:04;5.40;99.90
13245;DHT22;6689;53.400;12.486;2023-02-01T09:58:35;5.50;99.90
13245;DHT22;6689;53.400;12.486;2023-02-01T10:01:10;5.50;99.90
13245;DHT22;6689;53.400;12.486;2023-02-01T10:03:44;5.50;99.90
13245;DHT22;6689;53.400;12.486;2023-02-01T10:06:29;5.60;99.90
13245;DHT22;6689;53.400;12.486;2023-02-01T10:09:20;5.80;99.90
13245;DHT22;6689;53.400;12.486;2023-02-01T10:15:14;5.60;99.90
13245;DHT22;6689;53.400;12.486;2023-02-01T10:17:53;6.10;99.90
13245;DHT22;6689;53.400;12.486;2023-02-01T10:20:44;6.10;99.90
13245;DHT22;6689;53.400;12.486;2023-02-01T10:23:38;6.00;99.90
13245;DHT22;6689;53.400;12.486;2023-02-01T10:26:15;5.90;99.90
13245;DHT22;6689;53.400;12.486;2023-02-01T10:28:46;5.60;99.90
13245;DHT22;6689;53.400;12.486;2023-02-01T10:31:16;5.20;99.90
13245;DHT22;6689;53.400;12.486;2023-02-01T10:33:45;5.10;1.00
13245;DHT22;6689;53.400;12.486;2023-02-01T10:36:19;5.00;1.00
13245;DHT22;6689;53.400;12.486;2023-02-01T10:38:48;5.10;1.00
13245;DHT22;6689;53.400;12.486;2023-02-01T10:41:21;5.10;1.00
13245;DHT22;6689;53.400;12.486;2023-02-01T10:43:51;5.20;1.00
13245;DHT22;6689;53.400;12.486;2023-02-01T10:46:20;5.10;1.00
13245;DHT22;6689;53.400;12.486;2023-02-01T10:48:48;5.20;1.00
13245;DHT22;6689;53.400;12.486;2023-02-01T10:51:22;5.30;1.00
13245;DHT22;6689;53.400;12.486;2023-02-01T10:53:55;5.40;1.00
13245;DHT22;6689;53.400;12.486;2023-02-01T10:56:27;5.50;1.00
13245;DHT22;6689;53.400;12.486;2023-02-01T10:59:01;5.60;1.00
13245;DHT22;6689;53.400;12.486;2023-02-01T11:01:31;5.80;1.00
13245;DHT22;6689;53.400;12.486;2023-02-01T11:04:02;5.80;99.90
13245;DHT22;6689;53.400;12.486;2023-02-01T11:06:35;5.80;99.90
13245;DHT22;6689;53.400;12.486;2023-02-01T11:09:11;5.90;99.90
13245;DHT22;6689;53.400;12.486;2023-02-01T11:11:54;6.10;99.90
13245;DHT22;6689;53.400;12.486;2023-02-01T11:14:34;6.10;99.90
13245;DHT22;6689;53.400;12.486;2023-02-01T11:17:16;6.10;99.90
13245;DHT22;6689;53.400;12.486;2023-02-01T11:19:45;6.00;99.90
13245;DHT22;6689;53.400;12.486;2023-02-01T11:22:15;5.90;99.90
13245;DHT22;6689;53.400;12.486;2023-02-01T11:24:46;5.90;99.90
13245;DHT22;6689;53.400;12.486;2023-02-01T11:27:15;6.10;99.90
13245;DHT22;6689;53.400;12.486;2023-02-01T11:29:47;6.10;99.90
13245;DHT22;6689;53.400;12.486;2023-02-01T11:32:18;6.30;99.90
13245;DHT22;6689;53.400;12.486;2023-02-01T11:34:49;6.30;99.90
13245;DHT22;6689;53.400;12.486;2023-02-01T11:37:21;6.40;99.90
13245;DHT22;6689;53.400;12.486;2023-02-01T11:39:54;6.40;99.90
13245;DHT22;6689;53.400;12.486;2023-02-01T11:42:23;6.50;99.90
13245;DHT22;6689;53.400;12.486;2023-02-01T11:45:16;6.40;99.90
13245;DHT22;6689;53.400;12.486;2023-02-01T11:47:44;6.50;99.90
13245;DHT22;6689;53.400;12.486;2023-02-01T11:50:16;6.70;99.90
13245;DHT22;6689;53.400;12.486;2023-02-01T11:53:09;6.70;21.60
13245;DHT22;6689;53.400;12.486;2023-02-01T11:55:53;6.70;72.90
13245;DHT22;6689;53.400;12.486;2023-02-01T11:58:36;6.80;22.20
13245;DHT22;6689;53.400;12.486;2023-02-01T12:01:38;6.60;1.00
13245;DHT22;6689;53.400;12.486;2023-02-01T12:07:04;6.80;1.00
13245;DHT22;6689;53.400;12.486;2023-02-01T12:09:50;6.50;1.00
13245;DHT22;6689;53.400;12.486;2023-02-01T12:12:22;6.60;1.00
13245;DHT22;6689;53.400;12.486;2023-02-01T12:15:12;6.60;1.00
13245;DHT22;6689;53.400;12.486;2023-02-01T12:18:14;6.50;1.00
13245;DHT22;6689;53.400;12.486;2023-02-01T12:21:01;6.50;1.00
13245;DHT22;6689;53.400;12.486;2023-02-01T12:23:46;6.30;1.00
13245;DHT22;6689;53.400;12.486;2023-02-01T12:29:39;6.30;1.00
13245;DHT22;6689;53.400;12.486;2023-02-01T12:32:25;6.10;1.00
13245;DHT22;6689;53.400;12.486;2023-02-01T12:35:16;6.00;1.00
13245;DHT22;6689;53.400;12.486;2023-02-01T12:37:56;6.20;1.00
13245;DHT22;6689;53.400;12.486;2023-02-01T12:40:43;6.30;1.00
13245;DHT22;6689;53.400;12.486;2023-02-01T12:43:16;6.10;1.00
13245;DHT22;6689;53.400;12.486;2023-02-01T12:45:52;6.30;1.00
13245;DHT22;6689;53.400;12.486;2023-02-01T12:48:29;6.30;1.00
13245;DHT22;6689;53.400;12.486;2023-02-01T12:51:02;6.30;1.00
13245;DHT22;6689;53.400;12.486;2023-02-01T12:53:41;6.30;1.00
13245;DHT22;6689;53.400;12.486;2023-02-01T12:56:12;6.20;1.00
13245;DHT22;6689;53.400;12.486;2023-02-01T12:58:44;6.20;1.00
13245;DHT22;6689;53.400;12.486;2023-02-01T13:01:20;6.20;3.30
13245;DHT22;6689;53.400;12.486;2023-02-01T13:03:56;6.10;1.00
13245;DHT22;6689;53.400;12.486;2023-02-01T13:06:29;6.10;14.40
13245;DHT22;6689;53.400;12.486;2023-02-01T13:09:03;6.30;60.30
13245;DHT22;6689;53.400;12.486;2023-02-01T13:11:36;5.90;76.10
13245;DHT22;6689;53.400;12.486;2023-02-01T13:14:10;6.00;99.90
13245;DHT22;6689;53.400;12.486;2023-02-01T13:16:44;5.90;99.90
13245;DHT22;6689;53.400;12.486;2023-02-01T13:19:18;5.60;99.90
13245;DHT22;6689;53.400;12.486;2023-02-01T13:21:49;5.70;99.90
13245;DHT22;6689;53.400;12.486;2023-02-01T13:24:27;5.80;99.90
13245;DHT22;6689;53.400;12.486;2023-02-01T13:27:00;5.80;99.90
13245;DHT22;6689;53.400;12.486;2023-02-01T13:29:29;5.80;99.90
13245;DHT22;6689;53.400;12.486;2023-02-01T13:35:03;5.80;99.90
13245;DHT22;6689;53.400;12.486;2023-02-01T13:37:58;5.80;98.50
13245;DHT22;6689;53.400;12.486;2023-02-01T13:40:41;5.80;99.90
13245;DHT22;6689;53.400;12.486;2023-02-01T13:43:14;5.70;99.90
13245;DHT22;6689;53.400;12.486;2023-02-01T13:45:46;5.60;74.10
13245;DHT22;6689;53.400;12.486;2023-02-01T13:48:26;5.50;99.90
13245;DHT22;6689;53.400;12.486;2023-02-01T13:50:56;5.70;99.90
13245;DHT22;6689;53.400;12.486;2023-02-01T13:53:29;5.60;99.90
13245;DHT22;6689;53.400;12.486;2023-02-01T13:55:59;5.70;99.90
13245;DHT22;6689;53.400;12.486;2023-02-01T13:58:33;5.60;99.90
13245;DHT22;6689;53.400;12.486;2023-02-01T14:04:04;5.60;99.90
13245;DHT22;6689;53.400;12.486;2023-02-01T14:06:42;5.70;99.90
13245;DHT22;6689;53.400;12.486;2023-02-01T14:09:19;5.70;99.90
13245;DHT22;6689;53.400;12.486;2023-02-01T14:11:49;5.80;99.90
13245;DHT22;6689;53.400;12.486;2023-02-01T14:14:48;5.80;99.90
13245;DHT22;6689;53.400;12.486;2023-02-01T14:17:39;5.80;99.90
13245;DHT22;6689;53.400;12.486;2023-02-01T14:20:41;5.80;99.90
13245;DHT22;6689;53.400;12.486;2023-02-01T14:23:14;5.70;99.90
13245;DHT22;6689;53.400;12.486;2023-02-01T14:25:43;5.70;99.90
13245;DHT22;6689;53.400;12.486;2023-02-01T14:28:12;5.50;99.90
13245;DHT22;6689;53.400;12.486;2023-02-01T14:30:47;5.50;99.90
13245;DHT22;6689;53.400;12.486;2023-02-01T14:33:20;5.60;99.90
13245;DHT22;6689;53.400;12.486;2023-02-01T14:36:23;5.40;99.90
13245;DHT22;6689;53.400;12.486;2023-02-01T14:38:51;5.50;99.90
13245;DHT22;6689;53.400;12.486;2023-02-01T14:41:34;5.40;99.90
13245;DHT22;6689;53.400;12.486;2023-02-01T14:44:24;5.40;99.90
13245;DHT22;6689;53.400;12.486;2023-02-01T14:50:07;5.10;99.90
13245;DHT22;6689;53.400;12.486;2023-02-01T14:52:40;4.80;99.90
13245;DHT22;6689;53.400;12.486;2023-02-01T14:55:13;5.20;99.90
13245;DHT22;6689;53.400;12.486;2023-02-01T14:57:43;5.20;99.90
13245;DHT22;6689;53.400;12.486;2023-02-01T15:00:21;5.30;99.90
13245;DHT22;6689;53.400;12.486;2023-02-01T15:02:51;5.30;99.90
13245;DHT22;6689;53.400;12.486;2023-02-01T15:05:25;5.10;99.90
13245;DHT22;6689;53.400;12.486;2023-02-01T15:08:06;5.00;99.90
13245;DHT22;6689;53.400;12.486;2023-02-01T15:10:42;5.20;99.90
13245;DHT22;6689;53.400;12.486;2023-02-01T15:13:24;5.20;99.90
13245;DHT22;6689;53.400;12.486;2023-02-01T15:16:08;5.20;99.90
13245;DHT22;6689;53.400;12.486;2023-02-01T15:18:37;5.20;99.90
13245;DHT22;6689;53.400;12.486;2023-02-01T15:21:05;4.80;99.90
13245;DHT22;6689;53.400;12.486;2023-02-01T15:23:34;5.00;99.90
13245;DHT22;6689;53.400;12.486;2023-02-01T15:26:01;5.10;99.90
13245;DHT22;6689;53.400;12.486;2023-02-01T15:28:29;5.10;99.90
13245;DHT22;6689;53.400;12.486;2023-02-01T15:31:01;5.00;99.90
13245;DHT22;6689;53.400;12.486;2023-02-01T15:33:29;4.90;99.90
13245;DHT22;6689;53.400;12.486;2023-02-01T15:36:08;5.00;99.90
13245;DHT22;6689;53.400;12.486;2023-02-01T15:38:40;4.90;99.90
13245;DHT22;6689;53.400;12.486;2023-02-01T15:41:13;4.70;99.90
13245;DHT22;6689;53.400;12.486;2023-02-01T15:43:43;4.80;99.90
13245;DHT22;6689;53.400;12.486;2023-02-01T15:46:13;4.80;99.90
13245;DHT22;6689;53.400;12.486;2023-02-01T15:48:44;4.80;99.90
13245;DHT22;6689;53.400;12.486;2023-02-01T15:51:15;4.50;99.90
13245;DHT22;6689;53.400;12.486;2023-02-01T15:53:50;4.80;99.90
13245;DHT22;6689;53.400;12.486;2023-02-01T15:56:25;4.80;99.90
13245;DHT22;6689;53.400;12.486;2023-02-01T15:58:55;4.70;99.90
13245;DHT22;6689;53.400;12.486;2023-02-01T16:01:23;4.70;99.90
13245;DHT22;6689;53.400;12.486;2023-02-01T16:04:02;4.50;99.90
13245;DHT22;6689;53.400;12.486;2023-02-01T16:06:31;4.70;99.90
13245;DHT22;6689;53.400;12.486;2023-02-01T16:09:09;4.80;99.90
13245;DHT22;6689;53.400;12.486;2023-02-01T16:11:41;4.70;99.90
13245;DHT22;6689;53.400;12.486;2023-02-01T16:14:13;4.70;99.90
13245;DHT22;6689;53.400;12.486;2023-02-01T16:16:40;4.40;99.90
13245;DHT22;6689;53.400;12.486;2023-02-01T16:19:08;4.50;99.90
13245;DHT22;6689;53.400;12.486;2023-02-01T16:21:35;4.20;99.90
13245;DHT22;6689;53.400;12.486;2023-02-01T16:24:05;4.50;99.90
13245;DHT22;6689;53.400;12.486;2023-02-01T16:26:33;4.50;99.90
13245;DHT22;6689;53.400;12.486;2023-02-01T16:29:00;4.40;99.90
13245;DHT22;6689;53.400;12.486;2023-02-01T16:31:36;4.50;99.90
13245;DHT22;6689;53.400;12.486;2023-02-01T16:34:04;4.40;99.90
13245;DHT22;6689;53.400;12.486;2023-02-01T16:36:33;4.40;99.90
13245;DHT22;6689;53.400;12.486;2023-02-01T16:39:04;4.40;99.90
13245;DHT22;6689;53.400;12.486;2023-02-01T16:41:33;4.30;99.90
13245;DHT22;6689;53.400;12.486;2023-02-01T16:44:00;4.40;99.90
13245;DHT22;6689;53.400;12.486;2023-02-01T16:46:34;4.30;99.90
13245;DHT22;6689;53.400;12.486;2023-02-01T16:49:02;4.40;99.90
13245;DHT22;6689;53.400;12.486;2023-02-01T16:51:31;4.50;99.90